Catania / Fontanarossa Airport LICC

Flugplatz Daten

Name: Catania / Fontanarossa Airport

Ident: LICC

Lat: 37,46680069

Long: 15,06639957

Platzhöhe: 39 ft

IataCode: CTA

City: Catania

Homepage: http://www.aeroporto.catania.it/

Metar

2022/08/14 06:50
LICC 140650Z 27007KT CAVOK 28/18 Q1009

Taf

2022/08/14 06:00
TAF LICC 140500Z 1406/1506 27010KT 9999 FEW030
BECMG 1411/1413 09012KT
BECMG 1418/1420 VRB05KT
Gewünschte Webcam nicht vorhanden? Dann fügen Sie eine hinzu. Sie wird dann so schnell wie möglich freigeschaltet
Url: Title: